createdAt,value
2023-02-04T00:01:35.261Z,78.75
2023-02-04T00:04:04.313Z,79.00
2023-02-04T00:06:34.734Z,79.00
2023-02-04T00:09:02.826Z,78.87
2023-02-04T00:11:31.610Z,78.85
2023-02-04T00:14:00.155Z,79.13
2023-02-04T00:16:28.289Z,79.17
2023-02-04T00:18:56.576Z,79.14
2023-02-04T00:21:24.722Z,79.18
2023-02-04T00:23:52.988Z,79.24
2023-02-04T00:26:21.244Z,79.43
2023-02-04T00:28:49.566Z,79.44
2023-02-04T00:31:18.120Z,79.44
2023-02-04T00:33:46.314Z,79.64
2023-02-04T00:36:14.405Z,79.92
2023-02-04T00:38:42.668Z,79.99
2023-02-04T00:41:10.781Z,79.79
2023-02-04T00:43:39.164Z,79.88
2023-02-04T00:46:08.063Z,80.09
2023-02-04T00:48:36.786Z,80.26
2023-02-04T00:51:05.044Z,80.21
2023-02-04T00:53:34.744Z,80.27
2023-02-04T00:56:03.574Z,80.51
2023-02-04T00:58:32.403Z,80.77
2023-02-04T01:01:00.638Z,81.04
2023-02-04T01:03:29.275Z,81.13
2023-02-04T01:05:57.446Z,80.90
2023-02-04T01:08:25.868Z,80.87
2023-02-04T01:10:56.126Z,80.92
2023-02-04T01:13:24.371Z,80.87
2023-02-04T01:15:53.977Z,80.94
2023-02-04T01:18:23.296Z,80.88
2023-02-04T01:20:51.529Z,80.57
2023-02-04T01:23:19.636Z,80.50
2023-02-04T01:25:50.764Z,80.53
2023-02-04T01:28:18.895Z,80.26
2023-02-04T01:30:47.131Z,80.32
2023-02-04T01:33:15.657Z,80.05
2023-02-04T01:35:44.258Z,79.79
2023-02-04T01:38:15.552Z,80.20
2023-02-04T01:40:44.970Z,80.59
2023-02-04T01:43:13.440Z,80.76
2023-02-04T01:45:41.761Z,80.61
2023-02-04T01:48:09.940Z,80.65
2023-02-04T01:50:38.945Z,81.11
2023-02-04T01:53:07.730Z,81.46
2023-02-04T01:55:35.927Z,81.74
2023-02-04T01:58:04.182Z,81.88
2023-02-04T02:00:33.366Z,81.87
2023-02-04T02:03:03.689Z,81.68
2023-02-04T02:05:49.629Z,81.64
2023-02-04T02:08:17.830Z,81.87
2023-02-04T02:10:47.402Z,81.76
2023-02-04T02:13:17.774Z,81.48
2023-02-04T02:15:46.237Z,81.24
2023-02-04T02:18:14.656Z,81.35
2023-02-04T02:20:43.463Z,81.63
2023-02-04T02:23:47.442Z,82.05
2023-02-04T02:26:15.725Z,82.38
2023-02-04T02:28:44.281Z,82.13
2023-02-04T02:31:13.058Z,81.84
2023-02-04T02:33:41.315Z,81.78
2023-02-04T02:36:10.462Z,82.03
2023-02-04T02:38:39.571Z,82.33
2023-02-04T02:41:10.370Z,82.29
2023-02-04T02:43:38.765Z,82.24
2023-02-04T02:46:06.968Z,82.54
2023-02-04T02:48:35.243Z,82.75
2023-02-04T02:51:03.450Z,82.81
2023-02-04T02:53:31.859Z,82.54
2023-02-04T02:56:04.754Z,82.26
2023-02-04T02:58:34.616Z,82.43
2023-02-04T03:01:06.657Z,82.72
2023-02-04T03:03:56.509Z,82.95
2023-02-04T03:06:25.540Z,82.92
2023-02-04T03:08:55.556Z,82.54
2023-02-04T03:11:26.406Z,82.45
2023-02-04T03:13:54.663Z,82.65
2023-02-04T03:16:22.766Z,82.87
2023-02-04T03:18:50.904Z,82.94
2023-02-04T03:21:19.065Z,82.71
2023-02-04T03:23:47.405Z,82.54
2023-02-04T03:26:15.555Z,82.68
2023-02-04T03:28:43.730Z,82.77
2023-02-04T03:31:12.016Z,82.76
2023-02-04T03:33:40.276Z,82.63
2023-02-04T03:36:09.239Z,82.76
2023-02-04T03:38:37.627Z,82.91
2023-02-04T03:41:06.456Z,82.92
2023-02-04T03:43:34.611Z,82.70
2023-02-04T03:46:02.844Z,82.52
2023-02-04T03:48:32.159Z,82.52
2023-02-04T03:51:00.428Z,82.69
2023-02-04T03:53:29.033Z,82.97
2023-02-04T03:55:57.162Z,83.01
2023-02-04T03:58:25.542Z,82.86
2023-02-04T04:00:53.781Z,82.84
2023-02-04T04:03:22.243Z,82.94
2023-02-04T04:05:50.423Z,83.20
2023-02-04T04:08:18.557Z,83.35
2023-02-04T04:10:46.930Z,83.32
2023-02-04T04:13:15.041Z,83.28
2023-02-04T04:15:43.415Z,83.23
2023-02-04T04:18:11.515Z,83.32
2023-02-04T04:20:39.987Z,83.42
2023-02-04T04:23:08.545Z,83.36
2023-02-04T04:25:37.302Z,83.44
2023-02-04T04:28:05.638Z,83.71
2023-02-04T04:30:34.493Z,84.05
2023-02-04T04:33:02.773Z,84.18
2023-02-04T04:35:31.313Z,84.04
2023-02-04T04:37:59.462Z,84.05
2023-02-04T04:40:27.678Z,84.22
2023-02-04T04:42:56.109Z,84.21
2023-02-04T04:45:24.228Z,84.11
2023-02-04T04:47:52.290Z,83.90
2023-02-04T04:50:20.410Z,83.56
2023-02-04T04:52:48.529Z,83.30
2023-02-04T04:55:16.976Z,83.52
2023-02-04T04:57:45.277Z,83.71
2023-02-04T05:00:17.593Z,83.86
2023-02-04T05:02:46.111Z,83.71
2023-02-04T05:05:14.420Z,83.50
2023-02-04T05:07:42.504Z,83.44
2023-02-04T05:10:10.923Z,83.50
2023-02-04T05:12:40.865Z,83.48
2023-02-04T05:15:09.471Z,83.43
2023-02-04T05:17:37.899Z,83.26
2023-02-04T05:20:07.028Z,82.96
2023-02-04T05:22:35.707Z,82.91
2023-02-04T05:25:04.084Z,82.96
2023-02-04T05:27:33.062Z,82.70
2023-02-04T05:30:01.222Z,82.64
2023-02-04T05:32:29.776Z,82.53
2023-02-04T05:34:57.864Z,82.33
2023-02-04T05:37:26.045Z,82.38
2023-02-04T05:39:54.129Z,82.59
2023-02-04T05:42:22.216Z,82.60
2023-02-04T05:44:50.368Z,82.42
2023-02-04T05:47:20.611Z,82.36
2023-02-04T05:49:49.109Z,82.47
2023-02-04T05:52:17.329Z,82.56
2023-02-04T05:54:45.473Z,82.67
2023-02-04T05:57:13.929Z,82.79
2023-02-04T05:59:42.216Z,82.63
2023-02-04T06:02:10.414Z,82.44
2023-02-04T06:04:39.013Z,82.54
2023-02-04T06:07:07.341Z,82.66
2023-02-04T06:09:35.425Z,82.71
2023-02-04T06:12:05.401Z,82.57
2023-02-04T06:14:34.726Z,82.29
2023-02-04T06:17:04.766Z,82.15
2023-02-04T06:19:34.108Z,82.39
2023-02-04T06:22:03.087Z,82.50
2023-02-04T06:24:33.699Z,82.55
2023-02-04T06:27:02.265Z,82.42
2023-02-04T06:29:30.381Z,82.28
2023-02-04T06:31:58.809Z,82.24
2023-02-04T06:34:45.950Z,82.52
2023-02-04T06:37:16.064Z,82.62
2023-02-04T06:39:44.693Z,82.83
2023-02-04T06:42:12.981Z,82.92
2023-02-04T06:44:41.492Z,82.73
2023-02-04T06:47:09.606Z,82.89
2023-02-04T06:49:37.833Z,83.00
2023-02-04T06:52:06.562Z,83.13
2023-02-04T06:54:34.746Z,83.14
2023-02-04T06:57:08.720Z,83.03
2023-02-04T06:59:37.660Z,82.83
2023-02-04T07:02:06.870Z,82.90
2023-02-04T07:04:35.530Z,83.01
2023-02-04T07:07:03.946Z,83.21
2023-02-04T07:09:32.121Z,83.38
2023-02-04T07:12:00.260Z,83.40
2023-02-04T07:14:28.838Z,83.13
2023-02-04T07:16:58.819Z,83.27
2023-02-04T07:19:27.102Z,83.43
2023-02-04T07:21:57.236Z,83.56
2023-02-04T07:24:25.746Z,83.53
2023-02-04T07:26:53.967Z,83.37
2023-02-04T07:29:25.714Z,83.51
2023-02-04T07:31:54.510Z,83.68
2023-02-04T07:34:23.348Z,83.71
2023-02-04T07:36:51.742Z,83.71
2023-02-04T07:39:19.912Z,83.52
2023-02-04T07:41:48.126Z,83.68
2023-02-04T07:44:17.184Z,83.90
2023-02-04T07:46:45.566Z,84.03
2023-02-04T07:49:13.843Z,83.76
2023-02-04T07:51:41.917Z,83.48
2023-02-04T07:54:10.218Z,83.45
2023-02-04T07:56:38.845Z,83.70
2023-02-04T07:59:07.115Z,83.95
2023-02-04T08:01:35.519Z,84.04
2023-02-04T08:04:03.824Z,83.99
2023-02-04T08:06:33.202Z,84.02
2023-02-04T08:09:01.732Z,84.21
2023-02-04T08:11:31.009Z,84.26
2023-02-04T08:13:59.266Z,83.93
2023-02-04T08:16:27.526Z,83.23
2023-02-04T08:18:55.890Z,82.97
2023-02-04T08:21:24.260Z,83.06
2023-02-04T08:23:52.539Z,82.84
2023-02-04T08:26:20.678Z,82.37
2023-02-04T08:28:48.852Z,81.46
2023-02-04T08:31:17.272Z,80.97
2023-02-04T08:33:46.321Z,81.10
2023-02-04T08:36:14.728Z,81.19
2023-02-04T08:38:44.744Z,81.02
2023-02-04T08:41:13.136Z,80.66
2023-02-04T08:43:41.446Z,80.36
2023-02-04T08:46:10.470Z,79.99
2023-02-04T08:50:11.025Z,79.45
2023-02-04T08:52:41.159Z,79.52
2023-02-04T08:55:09.414Z,78.89
2023-02-04T08:57:38.039Z,78.81
2023-02-04T09:00:06.873Z,78.81
2023-02-04T09:02:36.091Z,78.72
2023-02-04T09:05:04.527Z,78.96
2023-02-04T09:07:32.784Z,78.80
2023-02-04T09:10:01.136Z,78.51
2023-02-04T09:12:32.496Z,78.44
2023-02-04T09:15:00.774Z,78.81
2023-02-04T09:17:34.128Z,78.85
2023-02-04T09:20:02.945Z,78.58
2023-02-04T09:22:32.044Z,78.05
2023-02-04T09:25:00.721Z,78.24
2023-02-04T09:27:29.227Z,77.94
2023-02-04T09:29:57.445Z,77.84
2023-02-04T09:32:25.577Z,77.65
2023-02-04T09:34:54.374Z,77.51
2023-02-04T09:37:24.548Z,77.45
2023-02-04T09:39:52.729Z,77.71
2023-02-04T09:42:20.823Z,77.33
2023-02-04T09:44:49.150Z,77.07
2023-02-04T09:47:17.352Z,76.87
2023-02-04T09:49:48.554Z,76.55
2023-02-04T09:52:17.107Z,76.77
2023-02-04T09:54:45.337Z,77.21
2023-02-04T09:57:18.744Z,77.15
2023-02-04T09:59:47.214Z,77.10
2023-02-04T10:02:22.032Z,77.06
2023-02-04T10:04:57.754Z,77.07
2023-02-04T10:07:27.685Z,77.15
2023-02-04T10:09:56.182Z,77.24
2023-02-04T10:12:24.734Z,77.03
2023-02-04T10:14:57.965Z,76.97
2023-02-04T10:17:26.233Z,77.11
2023-02-04T10:19:54.686Z,77.22
2023-02-04T10:22:23.898Z,77.28
2023-02-04T10:24:52.296Z,77.32
2023-02-04T10:27:20.787Z,77.22
2023-02-04T10:29:59.111Z,77.31
2023-02-04T10:32:32.138Z,77.65
2023-02-04T10:35:03.955Z,78.03
2023-02-04T10:37:32.365Z,78.10
2023-02-04T10:40:00.817Z,77.88
2023-02-04T10:42:30.444Z,78.21
2023-02-04T10:44:59.651Z,78.45
2023-02-04T10:47:31.339Z,78.46
2023-02-04T10:50:15.396Z,78.55
2023-02-04T10:52:46.051Z,78.50
2023-02-04T10:55:19.453Z,78.31
2023-02-04T10:57:49.028Z,78.17
2023-02-04T11:00:22.419Z,78.40
2023-02-04T11:02:59.766Z,78.56
2023-02-04T11:05:33.230Z,78.37
2023-02-04T11:08:02.249Z,78.42
2023-02-04T11:10:32.268Z,78.68
2023-02-04T11:13:03.229Z,79.02
2023-02-04T11:15:50.347Z,79.12
2023-02-04T11:18:21.628Z,78.99
2023-02-04T11:20:53.074Z,78.93
2023-02-04T11:23:27.199Z,79.40
2023-02-04T11:26:04.389Z,79.71
2023-02-04T11:28:47.877Z,79.75
2023-02-04T11:31:22.573Z,79.76
2023-02-04T11:33:51.567Z,79.87
2023-02-04T11:36:21.742Z,80.24
2023-02-04T11:38:50.275Z,80.73
2023-02-04T11:41:24.086Z,80.93
2023-02-04T11:43:52.640Z,81.22
2023-02-04T11:46:21.182Z,81.59
2023-02-04T11:48:56.262Z,82.03
2023-02-04T11:51:34.381Z,82.50
2023-02-04T11:54:02.551Z,82.48
2023-02-04T11:56:30.950Z,82.66
2023-02-04T11:58:59.175Z,82.90
2023-02-04T14:40:06.411Z,68.14
2023-02-04T14:42:35.999Z,66.91
2023-02-04T14:45:08.735Z,66.99
2023-02-04T14:47:38.623Z,66.12
2023-02-04T14:50:08.387Z,65.59
2023-02-04T14:52:36.565Z,65.65
2023-02-04T14:55:05.088Z,65.78
2023-02-04T14:57:33.695Z,65.82
2023-02-04T15:00:01.968Z,65.95
2023-02-04T15:02:30.991Z,66.30
2023-02-04T15:05:00.249Z,65.95
2023-02-04T15:07:29.884Z,66.45
2023-02-04T15:09:59.075Z,66.66
2023-02-04T15:12:27.235Z,66.85
2023-02-04T15:14:55.310Z,66.30
2023-02-04T15:17:23.455Z,66.08
2023-02-04T15:19:51.525Z,66.03
2023-02-04T15:22:19.888Z,66.25
2023-02-04T15:24:48.450Z,66.47
2023-02-04T15:27:16.575Z,66.69
2023-02-04T15:29:44.792Z,66.93
2023-02-04T15:32:13.234Z,66.92
2023-02-04T15:34:41.670Z,66.88
2023-02-04T15:37:11.186Z,67.13
2023-02-04T15:39:40.911Z,67.34
2023-02-04T15:42:09.691Z,67.48
2023-02-04T15:44:38.026Z,67.42
2023-02-04T15:47:07.174Z,67.48
2023-02-04T15:49:35.758Z,67.58
2023-02-04T15:52:05.806Z,67.60
2023-02-04T15:54:38.126Z,67.48
2023-02-04T15:57:06.406Z,67.47
2023-02-04T15:59:34.932Z,67.64
2023-02-04T16:02:03.353Z,67.64
2023-02-04T16:04:31.673Z,67.85
2023-02-04T16:07:00.166Z,67.90
2023-02-04T16:09:28.668Z,68.13
2023-02-04T16:11:57.396Z,67.93
2023-02-04T16:14:25.920Z,67.93
2023-02-04T16:16:54.119Z,67.47
2023-02-04T16:19:22.290Z,67.08
2023-02-04T16:21:50.404Z,67.28
2023-02-04T16:24:18.630Z,67.54
2023-02-04T16:26:46.933Z,67.76
2023-02-04T16:29:15.218Z,67.97
2023-02-04T16:31:43.538Z,67.95
2023-02-04T16:34:12.396Z,67.88
2023-02-04T16:36:40.545Z,67.91
2023-02-04T16:39:09.116Z,67.98
2023-02-04T16:41:37.489Z,68.04
2023-02-04T16:44:05.773Z,68.00
2023-02-04T16:46:34.284Z,68.03
2023-02-04T16:49:05.137Z,68.11
2023-02-04T16:51:33.397Z,68.08
2023-02-04T16:54:01.987Z,68.34
2023-02-04T16:56:35.985Z,68.38
2023-02-04T16:59:04.357Z,68.24
2023-02-04T17:01:35.909Z,68.01
2023-02-04T17:04:04.511Z,68.08
2023-02-04T17:06:32.991Z,68.21
2023-02-04T17:09:01.589Z,68.28
2023-02-04T17:11:31.573Z,68.35
2023-02-04T17:14:01.767Z,68.48
2023-02-04T17:16:31.218Z,68.75
2023-02-04T17:19:00.540Z,68.62
2023-02-04T17:21:29.504Z,68.53
2023-02-04T17:24:04.361Z,68.64
2023-02-04T17:26:37.648Z,68.71
2023-02-04T17:29:14.222Z,68.79
2023-02-04T17:31:43.552Z,69.12
2023-02-04T17:34:11.921Z,69.14
2023-02-04T17:36:40.294Z,69.19
2023-02-04T17:39:08.651Z,69.34
2023-02-04T17:41:37.207Z,69.23
2023-02-04T17:44:05.632Z,68.80
2023-02-04T17:46:34.448Z,68.86
2023-02-04T17:49:02.932Z,68.93
2023-02-04T17:51:31.645Z,69.07
2023-02-04T17:54:00.233Z,69.30
2023-02-04T17:56:28.681Z,69.32
2023-02-04T17:58:56.933Z,69.26
2023-02-04T18:01:26.108Z,69.32
2023-02-04T18:03:54.445Z,69.03
2023-02-04T18:06:25.430Z,68.48
2023-02-04T18:08:56.781Z,66.99
2023-02-04T18:11:27.677Z,66.94
2023-02-04T18:14:05.282Z,66.62
2023-02-04T18:16:34.594Z,66.67
2023-02-04T18:19:31.798Z,66.81
2023-02-04T18:22:00.279Z,65.71
2023-02-04T18:24:37.477Z,65.85
2023-02-04T18:27:21.989Z,65.73
2023-02-04T18:29:54.984Z,65.02
2023-02-04T18:32:33.752Z,64.65
2023-02-04T18:35:02.893Z,64.57
2023-02-04T18:37:32.099Z,64.04
2023-02-04T18:40:09.360Z,64.17
2023-02-04T18:42:42.881Z,64.44
2023-02-04T18:45:29.768Z,64.79
2023-02-04T18:47:59.854Z,64.95
2023-02-04T18:50:32.648Z,64.54
2023-02-04T18:53:16.365Z,64.51
2023-02-04T18:55:47.934Z,64.36
2023-02-04T18:58:22.314Z,64.57
2023-02-04T19:01:12.859Z,64.66
2023-02-04T19:04:01.023Z,64.52
2023-02-04T19:06:39.699Z,64.69
2023-02-04T19:09:11.153Z,64.78
2023-02-04T19:11:53.231Z,65.10
2023-02-04T19:14:28.865Z,65.60
2023-02-04T19:17:07.919Z,65.95
2023-02-04T19:19:38.118Z,66.42
2023-02-04T19:22:20.746Z,66.85
2023-02-04T19:24:50.257Z,66.96
2023-02-04T19:27:34.569Z,66.95
2023-02-04T19:30:29.254Z,66.87
2023-02-04T19:33:13.972Z,67.05
2023-02-04T19:35:43.550Z,67.31
2023-02-04T19:38:30.586Z,67.57
2023-02-04T19:41:00.681Z,67.91
2023-02-04T19:43:38.993Z,68.20
2023-02-04T21:16:50.496Z,75.77
2023-02-04T21:19:18.741Z,74.23
2023-02-04T21:21:47.324Z,73.83
2023-02-04T21:24:15.757Z,73.86
2023-02-04T21:26:44.752Z,73.88
2023-02-04T21:29:13.462Z,73.87
2023-02-04T21:31:41.826Z,73.84
2023-02-04T21:34:10.111Z,73.67
2023-02-04T21:36:38.743Z,73.80
2023-02-04T21:39:07.016Z,73.88
2023-02-04T21:41:37.501Z,74.09
2023-02-04T21:44:05.998Z,74.33
2023-02-04T21:46:34.074Z,74.34
2023-02-04T21:49:04.082Z,74.19
2023-02-04T21:51:34.458Z,74.35
2023-02-04T21:54:05.453Z,74.51
2023-02-04T21:56:34.557Z,74.73
2023-02-04T21:59:02.856Z,74.91
2023-02-04T22:01:30.968Z,75.04
2023-02-04T22:03:59.342Z,74.81
2023-02-04T22:06:27.461Z,74.92
2023-02-04T22:08:55.553Z,75.15
2023-02-04T22:11:24.881Z,75.39
2023-02-04T22:13:53.514Z,75.71
2023-02-04T22:16:21.665Z,75.64
2023-02-04T22:18:49.901Z,75.55
2023-02-04T22:21:18.578Z,75.52
2023-02-04T22:23:47.144Z,75.61
2023-02-04T22:26:15.585Z,75.80
2023-02-04T22:28:44.058Z,75.83
2023-02-04T22:31:14.976Z,76.03
2023-02-04T22:33:43.189Z,76.02
2023-02-04T22:36:12.613Z,75.88
2023-02-04T22:38:40.975Z,75.92
2023-02-04T22:41:10.224Z,76.15
2023-02-04T22:43:39.069Z,76.53
2023-02-04T22:46:07.546Z,76.73
2023-02-04T22:48:35.953Z,76.91
2023-02-04T22:51:04.448Z,76.87
2023-02-04T22:53:32.819Z,76.95
2023-02-04T22:56:01.407Z,77.14
2023-02-04T22:58:29.861Z,77.36
2023-02-04T23:00:57.936Z,77.57
2023-02-04T23:03:26.433Z,77.64
2023-02-04T23:05:54.775Z,77.71
2023-02-04T23:08:23.285Z,78.08
2023-02-04T23:10:52.195Z,78.44
2023-02-04T23:13:28.545Z,78.67
2023-02-04T23:15:57.484Z,78.82
2023-02-04T23:18:25.777Z,78.72
2023-02-04T23:20:54.209Z,78.56
2023-02-04T23:23:22.489Z,78.62
2023-02-04T23:25:51.644Z,78.87
2023-02-04T23:28:21.057Z,79.04
2023-02-04T23:30:53.034Z,79.02
2023-02-04T23:33:21.370Z,78.92
2023-02-04T23:35:53.905Z,78.95
2023-02-04T23:38:22.172Z,79.12
2023-02-04T23:40:50.873Z,79.18
2023-02-04T23:43:18.969Z,79.41
2023-02-04T23:45:47.517Z,79.46
2023-02-04T23:48:15.628Z,79.12
2023-02-04T23:50:47.568Z,78.98
2023-02-04T23:53:15.834Z,79.25
2023-02-04T23:55:46.544Z,79.34
2023-02-04T23:58:14.867Z,79.51
